createdAt,value
2019-03-21T04:44:09.782Z,67.60
2019-03-21T04:46:41.092Z,52.90
2019-03-21T04:49:12.271Z,53.60
2019-03-21T04:51:43.372Z,54.50
2019-03-21T04:54:14.698Z,54.90
2019-03-21T04:56:46.339Z,55.10
2019-03-21T05:04:18.837Z,55.60
2019-03-21T05:06:50.471Z,55.30
2019-03-21T05:09:21.809Z,55.30
2019-03-21T05:11:53.400Z,55.80
2019-03-21T05:14:24.495Z,55.90
2019-03-21T05:19:25.936Z,56.60
2019-03-21T05:24:27.259Z,56.00
2019-03-21T05:26:59.039Z,55.90
2019-03-21T05:29:30.653Z,55.20
2019-03-21T05:32:03.786Z,55.60
2019-03-21T05:34:35.144Z,55.30
2019-03-21T05:37:07.317Z,55.30
2019-03-21T05:42:14.052Z,55.00
2019-03-21T05:49:46.872Z,55.90
2019-03-21T05:52:18.524Z,54.70
2019-03-21T05:57:20.336Z,54.50
2019-03-21T05:59:51.927Z,54.40
2019-03-21T06:02:23.459Z,54.60
2019-03-21T06:07:51.177Z,54.80
2019-03-21T06:10:22.513Z,54.40
2019-03-21T06:12:53.921Z,54.80
2019-03-21T06:15:27.564Z,55.10
2019-03-21T06:20:58.813Z,54.50
2019-03-21T06:23:53.730Z,54.70
2019-03-21T06:26:50.428Z,54.20
2019-03-21T06:29:22.160Z,54.50
2019-03-21T06:31:53.301Z,55.40
2019-03-21T06:34:24.486Z,54.50
2019-03-21T06:36:55.864Z,54.80
2019-03-21T06:39:27.409Z,55.00
2019-03-21T06:41:58.515Z,54.70
2019-03-21T06:44:30.125Z,55.10
2019-03-21T06:47:01.705Z,54.10
2019-03-21T06:49:32.910Z,53.00
2019-03-21T06:52:04.120Z,51.00
2019-03-21T06:54:55.118Z,50.70
2019-03-21T06:57:26.696Z,50.50
2019-03-21T06:59:57.803Z,49.90
2019-03-21T07:02:28.926Z,50.20
2019-03-21T07:05:00.362Z,49.80
2019-03-21T07:10:02.425Z,49.60
2019-03-21T07:12:35.320Z,49.80
2019-03-21T07:15:07.765Z,49.60
2019-03-21T07:17:41.898Z,49.60
2019-03-21T07:20:13.589Z,50.30
2019-03-21T07:22:45.623Z,50.30
2019-03-21T07:25:18.541Z,50.30
2019-03-21T07:27:53.378Z,51.00
2019-03-21T07:30:26.936Z,51.60
2019-03-21T07:32:58.345Z,52.00
2019-03-21T07:35:29.531Z,52.40
2019-03-21T07:38:01.116Z,52.30
2019-03-21T07:40:32.313Z,51.70
2019-03-21T07:43:03.721Z,51.40
2019-03-21T07:45:35.196Z,51.60
2019-03-21T07:48:06.786Z,50.90
2019-03-21T07:50:38.246Z,50.80
2019-03-21T07:53:09.331Z,51.00
2019-03-21T07:55:41.670Z,50.50
2019-03-21T07:58:13.212Z,50.30
2019-03-21T08:00:44.292Z,50.30
2019-03-21T08:03:15.606Z,50.20
2019-03-21T08:05:48.251Z,50.10
2019-03-21T08:08:19.671Z,49.90
2019-03-21T08:10:51.209Z,49.60
2019-03-21T08:13:22.367Z,49.50
2019-03-21T08:15:53.725Z,49.20
2019-03-21T08:18:24.944Z,49.20
2019-03-21T08:20:59.782Z,49.10
2019-03-21T08:23:28.994Z,48.60
2019-03-21T08:26:00.131Z,48.40
2019-03-21T08:28:31.214Z,47.60
2019-03-21T08:31:26.946Z,47.30
2019-03-21T08:33:59.803Z,47.20
2019-03-21T08:36:31.650Z,47.30
2019-03-21T08:39:02.666Z,47.00
2019-03-21T08:41:33.786Z,46.60
2019-03-21T08:44:05.104Z,46.00
2019-03-21T08:46:36.598Z,45.90
2019-03-21T08:49:07.828Z,45.90
2019-03-21T08:51:38.916Z,45.60
2019-03-21T08:54:09.961Z,44.60
2019-03-21T08:56:41.100Z,44.50
2019-03-21T08:59:12.844Z,44.00
2019-03-21T09:01:44.622Z,43.90
2019-03-21T09:04:16.074Z,43.20
2019-03-21T09:06:47.246Z,43.20
2019-03-21T09:09:18.412Z,42.60
2019-03-21T09:11:51.307Z,42.60
2019-03-21T09:14:23.561Z,42.80
2019-03-21T09:16:54.672Z,41.90
2019-03-21T09:19:25.824Z,41.70
2019-03-21T09:21:56.900Z,41.80
2019-03-21T09:24:35.467Z,41.70
2019-03-21T09:27:11.810Z,41.70
2019-03-21T09:29:53.212Z,41.90
2019-03-21T09:32:17.321Z,40.90
2019-03-21T09:34:48.719Z,40.60
2019-03-21T09:37:21.827Z,39.20
2019-03-21T09:39:53.824Z,39.30
2019-03-21T09:42:27.416Z,39.30
2019-03-21T09:44:59.242Z,38.80
2019-03-21T09:47:30.496Z,38.70
2019-03-21T09:50:01.896Z,38.90
2019-03-21T09:52:33.135Z,38.80
2019-03-21T09:55:04.662Z,38.10
2019-03-21T09:57:36.701Z,38.10
2019-03-21T10:00:09.125Z,38.20
2019-03-21T10:02:42.749Z,38.10
2019-03-21T10:05:14.284Z,37.60
2019-03-21T10:07:46.451Z,36.10
2019-03-21T10:10:27.032Z,35.80
2019-03-21T10:13:00.639Z,35.90
2019-03-21T10:15:32.217Z,35.50
2019-03-21T10:18:05.132Z,34.80
2019-03-21T10:20:37.125Z,34.50
2019-03-21T10:23:11.127Z,34.00
2019-03-21T10:25:42.361Z,33.80
2019-03-21T10:28:16.687Z,34.10
2019-03-21T10:30:48.880Z,33.80
2019-03-21T10:33:19.930Z,33.90
